Wetterdaten: Woche 12.11.18 - 18.11.18 (KW46)
Datum Zeit Temp. Aussen Temp. o. S. +5cm Feuchte Auss Luftdruck Regen Sonnenschein Regendauer Solar Windben Empfang
12.11.2018 00:00 10,9 C 10,0 C 9,4 C 92 % 1010,2 hPa 0,0 l/m 0,00 h 0,00 h 0 W/m 7,9 km/h (2 Bft) 95,96 %
12.11.2018 01:00 10,8 C 9,5 C 9,3 C 92 % 1010,5 hPa 0,0 l/m 0,00 h 0,43 h 0 W/m 8,2 km/h (2 Bft) 96,66 %
12.11.2018 02:00 10,7 C 9,4 C 8,9 C 94 % 1010,7 hPa 0,2 l/m 0,00 h 0,77 h 0 W/m 11,8 km/h (2 Bft) 96,41 %
12.11.2018 03:00 10,7 C 9,4 C 9,1 C 95 % 1010,1 hPa 0,4 l/m 0,00 h 0,63 h 0 W/m 15,8 km/h (3 Bft) 98,81 %
12.11.2018 04:00 10,7 C 9,5 C 9,4 C 96 % 1010,3 hPa 0,2 l/m 0,00 h 0,77 h 0 W/m 11,6 km/h (2 Bft) 97,14 %
12.11.2018 05:00 10,8 C 9,9 C 9,4 C 97 % 1010,2 hPa 0,2 l/m 0,00 h 0,97 h 0 W/m 6,1 km/h (2 Bft) 97,47 %
12.11.2018 06:00 10,8 C 10,0 C 9,4 C 97 % 1010,0 hPa 0,8 l/m 0,00 h 1,00 h 0 W/m 11,8 km/h (2 Bft) 97,22 %
12.11.2018 07:00 10,8 C 10,0 C 9,4 C 98 % 1010,3 hPa 1,0 l/m 0,00 h 1,00 h 0 W/m 8,8 km/h (2 Bft) 96,46 %
12.11.2018 08:00 10,8 C 10,0 C 9,4 C 98 % 1010,1 hPa 0,2 l/m 0,00 h 0,20 h 5 W/m 4,8 km/h (1 Bft) 98,92 %
12.11.2018 09:00 10,8 C 10,4 C 9,8 C 98 % 1009,6 hPa 0,0 l/m 0,00 h 0,00 h 41 W/m 1,6 km/h (1 Bft) 95,78 %
12.11.2018 10:00 11,4 C 11,1 C 10,6 C 98 % 1009,6 hPa 0,0 l/m 0,00 h 0,00 h 53 W/m 1,1 km/h (0 Bft) 98,00 %
12.11.2018 11:00 11,9 C 12,0 C 11,1 C 99 % 1009,8 hPa 0,0 l/m 0,00 h 0,00 h 91 W/m 0,0 km/h (0 Bft) 98,24 %
12.11.2018 12:00 12,5 C 12,6 C 11,9 C 99 % 1009,9 hPa 0,0 l/m 0,00 h 0,00 h 106 W/m 1,7 km/h (1 Bft) 96,77 %
12.11.2018 13:00 13,0 C 12,3 C 11,8 C 99 % 1010,4 hPa 0,0 l/m 0,00 h 0,10 h 38 W/m 5,3 km/h (1 Bft) 98,33 %
12.11.2018 14:00 12,0 C 11,0 C 10,7 C 98 % 1011,2 hPa 0,0 l/m 0,00 h 0,03 h 26 W/m 8,2 km/h (2 Bft) 96,68 %
12.11.2018 15:00 11,5 C 11,0 C 10,6 C 98 % 1011,7 hPa 0,0 l/m 0,00 h 0,00 h 19 W/m 1,9 km/h (1 Bft) 97,60 %
12.11.2018 16:00 11,3 C 10,6 C 10,1 C 97 % 1012,5 hPa 0,0 l/m 0,00 h 0,00 h 8 W/m 0,7 km/h (0 Bft) 97,49 %
12.11.2018 17:00 11,2 C 10,6 C 10,0 C 97 % 1013,5 hPa 0,0 l/m 0,00 h 0,00 h 0 W/m 1,9 km/h (1 Bft) 96,28 %
12.11.2018 18:00 11,2 C 10,4 C 10,0 C 97 % 1014,7 hPa 0,2 l/m 0,00 h 0,13 h 0 W/m 2,0 km/h (1 Bft) 99,17 %
12.11.2018 19:00 11,2 C 10,0 C 10,0 C 97 % 1015,5 hPa 1,0 l/m 0,00 h 0,77 h 0 W/m 2,9 km/h (1 Bft) 95,24 %
12.11.2018 20:00 10,9 C 9,5 C 9,4 C 97 % 1015,8 hPa 0,0 l/m 0,00 h 0,00 h 0 W/m 0,0 km/h (0 Bft) 97,70 %
12.11.2018 21:00 10,3 C 9,1 C 9,0 C 97 % 1016,1 hPa 0,0 l/m 0,00 h 0,00 h 0 W/m 1,1 km/h (0 Bft) 99,57 %
12.11.2018 22:00 9,8 C 8,9 C 8,5 C 97 % 1016,3 hPa 0,0 l/m 0,00 h 0,00 h 0 W/m 2,8 km/h (1 Bft) 94,91 %
12.11.2018 23:00 9,6 C 8,6 C 8,3 C 97 % 1016,8 hPa 0,0 l/m 0,00 h 0,00 h 0 W/m 1,8 km/h (1 Bft) 98,06 %
13.11.2018 00:00 9,3 C 8,3 C 8,0 C 98 % 1016,9 hPa 0,0 l/m 0,00 h 0,00 h 0 W/m 3,0 km/h (1 Bft) 99,48 %
13.11.2018 01:00 9,0 C 8,3 C 7,8 C 98 % 1016,8 hPa 0,0 l/m 0,00 h 0,00 h 0 W/m 2,6 km/h (1 Bft) 96,16 %
13.11.2018 02:00 8,9 C 8,2 C 7,8 C 98 % 1017,0 hPa 0,0 l/m 0,00 h 0,00 h 0 W/m 3,5 km/h (1 Bft) 97,41 %
13.11.2018 03:00 8,8 C 8,0 C 7,8 C 98 % 1017,1 hPa 0,0 l/m 0,00 h 0,00 h 0 W/m 1,5 km/h (1 Bft) 98,08 %
13.11.2018 04:00 8,9 C 8,4 C 8,0 C 98 % 1017,2 hPa 0,0 l/m 0,00 h 0,00 h 0 W/m 7,3 km/h (2 Bft) 97,27 %
13.11.2018 05:00 9,2 C 8,6 C 8,3 C 98 % 1017,4 hPa 0,0 l/m 0,00 h 0,00 h 0 W/m 8,8 km/h (2 Bft) 98,29 %
13.11.2018 06:00 9,2 C 8,5 C 7,9 C 96 % 1017,9 hPa 0,0 l/m 0,00 h 0,00 h 0 W/m 4,9 km/h (1 Bft) 95,29 %
13.11.2018 07:00 9,2 C 8,9 C 8,2 C 95 % 1018,7 hPa 0,2 l/m 0,00 h 0,00 h 0 W/m 11,2 km/h (2 Bft) 98,22 %
13.11.2018 08:00 10,0 C 9,8 C 9,1 C 93 % 1019,6 hPa 0,0 l/m 0,00 h 0,00 h 20 W/m 17,4 km/h (3 Bft) 99,07 %
13.11.2018 09:00 10,8 C 12,0 C 9,7 C 91 % 1020,0 hPa 0,0 l/m 0,60 h 0,00 h 130 W/m 18,7 km/h (3 Bft) 94,59 %
13.11.2018 10:00 11,7 C 12,1 C 10,9 C 87 % 1020,5 hPa 0,0 l/m 0,20 h 0,00 h 121 W/m 21,8 km/h (4 Bft) 98,45 %
13.11.2018 11:00 12,2 C 12,5 C 11,4 C 83 % 1020,9 hPa 0,0 l/m 0,20 h 0,00 h 126 W/m 23,0 km/h (4 Bft) 99,29 %
13.11.2018 12:00 13,1 C 14,1 C 12,3 C 79 % 1021,2 hPa 0,0 l/m 0,50 h 0,00 h 200 W/m 25,0 km/h (4 Bft) 94,59 %
13.11.2018 13:00 13,4 C 15,0 C 12,3 C 77 % 1021,8 hPa 0,0 l/m 0,50 h 0,00 h 210 W/m 20,2 km/h (4 Bft) 98,79 %
13.11.2018 14:00 13,3 C 13,9 C 11,8 C 76 % 1022,4 hPa 0,0 l/m 0,50 h 0,00 h 164 W/m 18,7 km/h (3 Bft) 98,50 %
13.11.2018 15:00 12,9 C 12,3 C 11,4 C 78 % 1023,0 hPa 0,0 l/m 0,13 h 0,00 h 55 W/m 16,7 km/h (3 Bft) 95,31 %
13.11.2018 16:00 12,0 C 11,1 C 10,3 C 80 % 1023,8 hPa 0,0 l/m 0,00 h 0,00 h 15 W/m 10,5 km/h (2 Bft) 99,43 %
13.11.2018 17:00 11,0 C 9,9 C 9,4 C 83 % 1024,8 hPa 0,0 l/m 0,00 h 0,00 h 0 W/m 8,4 km/h (2 Bft) 97,25 %
13.11.2018 18:00 10,4 C 9,4 C 8,9 C 86 % 1025,3 hPa 0,0 l/m 0,00 h 0,00 h 0 W/m 9,1 km/h (2 Bft) 98,27 %
13.11.2018 19:00 10,0 C 9,2 C 8,6 C 88 % 1025,7 hPa 0,0 l/m 0,00 h 0,00 h 0 W/m 9,9 km/h (2 Bft) 96,91 %
13.11.2018 20:00 9,7 C 8,8 C 8,3 C 88 % 1026,1 hPa 0,0 l/m 0,00 h 0,00 h 0 W/m 11,1 km/h (2 Bft) 96,61 %
13.11.2018 21:00 9,2 C 8,3 C 7,8 C 89 % 1026,4 hPa 0,0 l/m 0,00 h 0,00 h 0 W/m 9,1 km/h (2 Bft) 98,59 %
13.11.2018 22:00 8,6 C 7,7 C 7,0 C 90 % 1026,7 hPa 0,0 l/m 0,00 h 0,00 h 0 W/m 5,1 km/h (1 Bft) 98,15 %
13.11.2018 23:00 8,0 C 6,9 C 6,4 C 91 % 1027,1 hPa 0,0 l/m 0,00 h 0,00 h 0 W/m 2,9 km/h (1 Bft) 96,87 %
14.11.2018 00:00 7,5 C 6,7 C 6,1 C 93 % 1027,3 hPa 0,0 l/m 0,00 h 0,00 h 0 W/m 5,4 km/h (1 Bft) 96,82 %
14.11.2018 01:00 7,2 C 6,7 C 6,1 C 94 % 1027,2 hPa 0,0 l/m 0,00 h 0,00 h 0 W/m 7,8 km/h (2 Bft) 98,57 %
14.11.2018 02:00 7,1 C 6,3 C 5,8 C 94 % 1027,3 hPa 0,0 l/m 0,00 h 0,00 h 0 W/m 0,9 km/h (0 Bft) 98,21 %
14.11.2018 03:00 6,3 C 4,8 C 4,6 C 94 % 1027,3 hPa 0,0 l/m 0,00 h 0,00 h 0 W/m 2,4 km/h (1 Bft) 94,72 %
14.11.2018 04:00 5,7 C 5,0 C 4,4 C 95 % 1027,0 hPa 0,0 l/m 0,00 h 0,00 h 0 W/m 9,5 km/h (2 Bft) 98,55 %
14.11.2018 05:00 5,4 C 4,8 C 4,4 C 96 % 1026,5 hPa 0,0 l/m 0,00 h 0,00 h 0 W/m 9,9 km/h (2 Bft) 97,06 %
14.11.2018 06:00 5,2 C 4,4 C 4,0 C 96 % 1026,4 hPa 0,0 l/m 0,00 h 0,00 h 0 W/m 10,8 km/h (2 Bft) 97,01 %
14.11.2018 07:00 5,1 C 4,4 C 3,9 C 97 % 1026,3 hPa 0,2 l/m 0,00 h 0,00 h 5 W/m 12,2 km/h (2 Bft) 97,89 %
14.11.2018 08:00 5,2 C 5,1 C 4,3 C 97 % 1026,6 hPa 0,0 l/m 0,00 h 0,00 h 22 W/m 12,5 km/h (3 Bft) 95,03 %
14.11.2018 09:00 6,3 C 8,6 C 5,4 C 98 % 1027,0 hPa 0,0 l/m 0,97 h 0,00 h 146 W/m 10,7 km/h (2 Bft) 99,00 %
14.11.2018 10:00 7,9 C 11,8 C 6,7 C 96 % 1027,0 hPa 0,0 l/m 1,00 h 0,00 h 237 W/m 15,2 km/h (3 Bft) 97,58 %
14.11.2018 11:00 10,0 C 14,2 C 8,3 C 89 % 1026,9 hPa 0,0 l/m 1,00 h 0,00 h 344 W/m 16,4 km/h (3 Bft) 98,51 %
14.11.2018 12:00 11,3 C 15,0 C 10,1 C 84 % 1026,2 hPa 0,0 l/m 1,00 h 0,00 h 365 W/m 18,6 km/h (3 Bft) 99,00 %
14.11.2018 13:00 11,8 C 15,0 C 10,0 C 82 % 1025,9 hPa 0,0 l/m 1,00 h 0,00 h 321 W/m 18,1 km/h (3 Bft) 95,16 %
14.11.2018 14:00 11,8 C 13,9 C 10,0 C 81 % 1025,7 hPa 0,0 l/m 1,00 h 0,00 h 213 W/m 12,9 km/h (3 Bft) 98,33 %
14.11.2018 15:00 11,4 C 11,0 C 9,4 C 83 % 1025,4 hPa 0,0 l/m 0,00 h 0,00 h 60 W/m 6,1 km/h (2 Bft) 98,00 %
14.11.2018 16:00 10,6 C 9,4 C 8,1 C 85 % 1025,0 hPa 0,0 l/m 0,03 h 0,00 h 18 W/m 4,5 km/h (1 Bft) 95,15 %
14.11.2018 17:00 9,6 C 7,9 C 7,2 C 86 % 1024,6 hPa 0,0 l/m 0,00 h 0,00 h 0 W/m 2,9 km/h (1 Bft) 99,57 %
14.11.2018 18:00 8,3 C 7,4 C 6,6 C 88 % 1024,5 hPa 0,0 l/m 0,00 h 0,00 h 0 W/m 6,0 km/h (2 Bft) 97,61 %
14.11.2018 19:00 8,4 C 7,8 C 6,8 C 90 % 1024,4 hPa 0,0 l/m 0,00 h 0,00 h 0 W/m 8,8 km/h (2 Bft) 96,85 %
14.11.2018 20:00 8,1 C 7,2 C 6,7 C 91 % 1024,1 hPa 0,0 l/m 0,00 h 0,00 h 0 W/m 12,9 km/h (3 Bft) 97,08 %
14.11.2018 21:00 7,7 C 6,8 C 6,2 C 92 % 1024,0 hPa 0,0 l/m 0,00 h 0,00 h 0 W/m 13,3 km/h (3 Bft) 98,22 %
14.11.2018 22:00 7,0 C 6,1 C 5,6 C 93 % 1024,0 hPa 0,0 l/m 0,00 h 0,00 h 0 W/m 14,9 km/h (3 Bft) 97,79 %
14.11.2018 23:00 6,5 C 5,7 C 5,1 C 94 % 1024,1 hPa 0,0 l/m 0,00 h 0,00 h 0 W/m 14,6 km/h (3 Bft) 96,73 %
15.11.2018 00:00 6,1 C 5,6 C 5,0 C 95 % 1024,2 hPa 0,0 l/m 0,00 h 0,00 h 0 W/m 11,8 km/h (2 Bft) 97,51 %
15.11.2018 01:00 6,1 C 5,6 C 4,9 C 96 % 1024,1 hPa 0,0 l/m 0,00 h 0,00 h 0 W/m 13,6 km/h (3 Bft) 97,58 %
15.11.2018 02:00 6,2 C 5,6 C 5,0 C 96 % 1024,0 hPa 0,0 l/m 0,00 h 0,00 h 0 W/m 13,5 km/h (3 Bft) 97,51 %
15.11.2018 03:00 6,2 C 5,6 C 5,0 C 96 % 1023,7 hPa 0,0 l/m 0,00 h 0,00 h 0 W/m 13,1 km/h (3 Bft) 98,08 %
15.11.2018 04:00 6,0 C 5,6 C 5,0 C 96 % 1023,5 hPa 0,0 l/m 0,00 h 0,00 h 0 W/m 14,3 km/h (3 Bft) 96,37 %
15.11.2018 05:00 5,8 C 5,2 C 4,5 C 96 % 1023,5 hPa 0,0 l/m 0,00 h 0,00 h 0 W/m 12,1 km/h (2 Bft) 98,43 %
15.11.2018 06:00 5,5 C 5,0 C 4,4 C 96 % 1023,7 hPa 0,0 l/m 0,00 h 0,00 h 0 W/m 13,8 km/h (3 Bft) 98,78 %
15.11.2018 07:00 5,4 C 5,0 C 4,4 C 96 % 1023,8 hPa 0,0 l/m 0,00 h 0,00 h 5 W/m 13,7 km/h (3 Bft) 95,73 %
15.11.2018 08:00 5,4 C 5,1 C 4,4 C 96 % 1024,1 hPa 0,0 l/m 0,00 h 0,00 h 20 W/m 13,7 km/h (3 Bft) 97,50 %
15.11.2018 09:00 6,1 C 7,9 C 5,2 C 96 % 1024,2 hPa 0,0 l/m 0,97 h 0,00 h 146 W/m 14,4 km/h (3 Bft) 98,08 %
15.11.2018 10:00 7,6 C 10,8 C 6,4 C 92 % 1024,3 hPa 0,0 l/m 1,00 h 0,00 h 230 W/m 20,3 km/h (4 Bft) 98,15 %
15.11.2018 11:00 8,9 C 12,5 C 7,2 C 86 % 1024,1 hPa 0,2 l/m 1,00 h 0,00 h 347 W/m 22,5 km/h (4 Bft) 98,58 %
15.11.2018 12:00 9,8 C 13,9 C 8,5 C 82 % 1023,7 hPa 0,0 l/m 1,00 h 0,00 h 383 W/m 20,4 km/h (4 Bft) 97,83 %
15.11.2018 13:00 10,4 C 14,1 C 8,6 C 79 % 1023,4 hPa 0,0 l/m 1,00 h 0,00 h 353 W/m 20,2 km/h (4 Bft) 96,51 %
15.11.2018 14:00 10,4 C 13,1 C 8,3 C 78 % 1023,3 hPa 0,0 l/m 0,97 h 0,00 h 266 W/m 19,5 km/h (3 Bft) 97,78 %
15.11.2018 15:00 9,2 C 8,3 C 7,5 C 81 % 1023,3 hPa 0,0 l/m 0,00 h 0,00 h 34 W/m 16,8 km/h (3 Bft) 97,44 %
15.11.2018 16:00 8,1 C 7,1 C 6,5 C 84 % 1023,3 hPa 0,0 l/m 0,00 h 0,00 h 13 W/m 13,7 km/h (3 Bft) 97,86 %
15.11.2018 17:00 6,9 C 5,9 C 5,4 C 87 % 1023,2 hPa 0,0 l/m 0,00 h 0,00 h 0 W/m 20,1 km/h (4 Bft) 95,94 %
15.11.2018 18:00 5,9 C 5,0 C 4,5 C 90 % 1023,4 hPa 0,0 l/m 0,00 h 0,00 h 0 W/m 17,9 km/h (3 Bft) 99,19 %
15.11.2018 19:00 5,1 C 4,2 C 3,7 C 91 % 1023,6 hPa 0,0 l/m 0,00 h 0,07 h 0 W/m 12,3 km/h (3 Bft) 97,93 %
15.11.2018 20:00 4,7 C 3,9 C 3,3 C 93 % 1023,6 hPa 0,0 l/m 0,00 h 0,00 h 0 W/m 17,4 km/h (3 Bft) 94,66 %
15.11.2018 21:00 4,4 C 3,9 C 3,3 C 94 % 1023,8 hPa 0,0 l/m 0,00 h 0,00 h 0 W/m 16,5 km/h (3 Bft) 99,22 %
15.11.2018 22:00 4,3 C 3,9 C 3,3 C 94 % 1024,1 hPa 0,0 l/m 0,00 h 0,00 h 0 W/m 19,0 km/h (3 Bft) 97,73 %
15.11.2018 23:00 4,3 C 3,9 C 3,3 C 94 % 1024,3 hPa 0,0 l/m 0,00 h 0,00 h 0 W/m 21,0 km/h (4 Bft) 97,22 %
16.11.2018 00:00 4,6 C 4,0 C 3,3 C 93 % 1024,2 hPa 0,0 l/m 0,00 h 0,00 h 0 W/m 22,4 km/h (4 Bft) 97,68 %
16.11.2018 01:00 4,5 C 3,9 C 3,3 C 93 % 1024,2 hPa 0,0 l/m 0,00 h 0,00 h 0 W/m 17,6 km/h (3 Bft) 97,72 %
16.11.2018 02:00 4,4 C 3,9 C 3,3 C 94 % 1024,4 hPa 0,0 l/m 0,00 h 0,00 h 0 W/m 19,8 km/h (4 Bft) 97,86 %
16.11.2018 03:00 4,2 C 3,9 C 3,2 C 94 % 1024,4 hPa 0,0 l/m 0,00 h 0,00 h 0 W/m 19,2 km/h (3 Bft) 97,52 %
16.11.2018 04:00 4,3 C 3,9 C 3,3 C 94 % 1024,4 hPa 0,0 l/m 0,00 h 0,00 h 0 W/m 17,0 km/h (3 Bft) 97,94 %
16.11.2018 05:00 4,6 C 4,2 C 3,3 C 94 % 1024,6 hPa 0,0 l/m 0,00 h 0,00 h 0 W/m 19,5 km/h (3 Bft) 98,70 %
16.11.2018 06:00 4,6 C 4,0 C 3,3 C 94 % 1024,9 hPa 0,0 l/m 0,00 h 0,00 h 0 W/m 15,2 km/h (3 Bft) 98,39 %
16.11.2018 07:00 4,6 C 4,1 C 3,3 C 94 % 1025,2 hPa 0,0 l/m 0,00 h 0,00 h 4 W/m 14,9 km/h (3 Bft) 95,38 %
16.11.2018 08:00 4,5 C 4,3 C 3,4 C 93 % 1025,8 hPa 0,0 l/m 0,00 h 0,00 h 21 W/m 10,6 km/h (2 Bft) 98,08 %
16.11.2018 09:00 5,8 C 7,2 C 4,8 C 91 % 1026,0 hPa 0,0 l/m 0,97 h 0,00 h 144 W/m 23,7 km/h (4 Bft) 99,43 %
16.11.2018 10:00 7,3 C 9,6 C 5,9 C 86 % 1026,5 hPa 0,0 l/m 1,00 h 0,00 h 228 W/m 28,2 km/h (4 Bft) 94,87 %
16.11.2018 11:00 8,8 C 12,4 C 7,1 C 81 % 1026,6 hPa 0,0 l/m 1,00 h 0,00 h 327 W/m 21,7 km/h (4 Bft) 97,08 %
16.11.2018 12:00 10,2 C 14,1 C 8,9 C 76 % 1026,3 hPa 0,0 l/m 1,00 h 0,00 h 358 W/m 21,6 km/h (4 Bft) 96,28 %
16.11.2018 13:00 11,3 C 15,0 C 9,5 C 73 % 1026,1 hPa 0,0 l/m 1,00 h 0,00 h 323 W/m 17,3 km/h (3 Bft) 98,08 %
16.11.2018 14:00 12,1 C 14,7 C 9,7 C 69 % 1025,9 hPa 0,0 l/m 0,97 h 0,00 h 237 W/m 14,7 km/h (3 Bft) 98,43 %
16.11.2018 15:00 11,6 C 10,9 C 8,7 C 70 % 1025,9 hPa 0,0 l/m 0,00 h 0,00 h 33 W/m 7,9 km/h (2 Bft) 95,66 %
16.11.2018 16:00 10,4 C 8,2 C 7,0 C 74 % 1025,9 hPa 0,0 l/m 0,00 h 0,00 h 13 W/m 3,9 km/h (1 Bft) 97,30 %
16.11.2018 17:00 7,8 C 5,4 C 4,7 C 79 % 1026,0 hPa 0,0 l/m 0,00 h 0,00 h 0 W/m 2,2 km/h (1 Bft) 99,15 %
16.11.2018 18:00 6,5 C 5,5 C 4,0 C 83 % 1026,2 hPa 0,0 l/m 0,00 h 0,00 h 0 W/m 4,6 km/h (1 Bft) 96,79 %
16.11.2018 19:00 6,8 C 5,6 C 4,3 C 81 % 1026,7 hPa 0,0 l/m 0,00 h 0,00 h 0 W/m 6,3 km/h (2 Bft) 98,51 %
16.11.2018 20:00 5,3 C 2,8 C 2,5 C 81 % 1026,9 hPa 0,0 l/m 0,00 h 0,00 h 0 W/m 3,1 km/h (1 Bft) 96,01 %
16.11.2018 21:00 4,4 C 3,0 C 2,2 C 85 % 1027,0 hPa 0,0 l/m 0,00 h 0,00 h 0 W/m 3,4 km/h (1 Bft) 97,72 %
16.11.2018 22:00 3,5 C 1,8 C 1,4 C 87 % 1027,2 hPa 0,0 l/m 0,00 h 0,00 h 0 W/m 2,6 km/h (1 Bft) 97,30 %
16.11.2018 23:00 2,3 C 0,7 C 0,6 C 88 % 1027,3 hPa 0,0 l/m 0,00 h 0,00 h 0 W/m 3,0 km/h (1 Bft) 99,43 %
17.11.2018 00:00 1,5 C 0,6 C 0,6 C 90 % 1027,4 hPa 0,0 l/m 0,00 h 0,00 h 0 W/m 0,2 km/h (0 Bft) 97,17 %
17.11.2018 01:00 1,5 C 1,1 C 1,0 C 92 % 1027,6 hPa 0,0 l/m 0,00 h 0,00 h 0 W/m 0,4 km/h (0 Bft) 95,80 %
17.11.2018 02:00 1,4 C 0,6 C 0,9 C 93 % 1027,8 hPa 0,0 l/m 0,00 h 0,00 h 0 W/m 0,6 km/h (0 Bft) 98,45 %
17.11.2018 03:00 1,0 C 0,1 C 0,5 C 93 % 1027,6 hPa 0,0 l/m 0,00 h 0,00 h 0 W/m 0,0 km/h (0 Bft) 97,76 %
17.11.2018 04:00 0,4 C -0,9 C -0,4 C 93 % 1027,6 hPa 0,0 l/m 0,00 h 0,00 h 0 W/m 0,0 km/h (0 Bft) 96,44 %
17.11.2018 05:00 0,0 C -1,0 C -0,8 C 93 % 1027,6 hPa 0,0 l/m 0,00 h 0,00 h 0 W/m 0,0 km/h (0 Bft) 97,19 %
17.11.2018 06:00 -0,4 C -1,3 C -0,9 C 94 % 1027,8 hPa 0,0 l/m 0,00 h 0,00 h 0 W/m 0,7 km/h (0 Bft) 97,20 %
17.11.2018 07:00 -0,4 C -1,1 C -0,6 C 94 % 1028,1 hPa 0,0 l/m 0,00 h 0,00 h 4 W/m 4,1 km/h (1 Bft) 98,36 %
17.11.2018 08:00 -0,5 C -0,9 C -0,7 C 95 % 1028,5 hPa 0,0 l/m 0,00 h 0,00 h 16 W/m 2,3 km/h (1 Bft) 96,58 %
17.11.2018 09:00 0,5 C 4,6 C 0,3 C 96 % 1028,6 hPa 0,2 l/m 0,93 h 0,00 h 147 W/m 2,0 km/h (1 Bft) 97,65 %
17.11.2018 10:00 3,5 C 10,0 C 2,1 C 96 % 1029,2 hPa 0,0 l/m 1,00 h 0,00 h 228 W/m 7,4 km/h (2 Bft) 98,50 %
17.11.2018 11:00 7,0 C 14,4 C 3,9 C 84 % 1029,1 hPa 0,0 l/m 1,00 h 0,00 h 340 W/m 8,3 km/h (2 Bft) 97,37 %
17.11.2018 12:00 10,1 C 17,8 C 6,6 C 74 % 1028,6 hPa 0,0 l/m 1,00 h 0,00 h 374 W/m 8,0 km/h (2 Bft) 98,93 %
17.11.2018 13:00 11,8 C 17,9 C 7,7 C 67 % 1028,2 hPa 0,0 l/m 1,00 h 0,00 h 340 W/m 10,3 km/h (2 Bft) 97,44 %
17.11.2018 14:00 11,3 C 14,4 C 7,2 C 65 % 1027,9 hPa 0,0 l/m 0,93 h 0,00 h 241 W/m 12,3 km/h (3 Bft) 96,01 %
17.11.2018 15:00 9,1 C 8,1 C 6,3 C 71 % 1027,8 hPa 0,0 l/m 0,00 h 0,00 h 34 W/m 11,3 km/h (2 Bft) 98,15 %
17.11.2018 16:00 7,6 C 6,3 C 5,1 C 75 % 1027,7 hPa 0,0 l/m 0,00 h 0,00 h 13 W/m 8,9 km/h (2 Bft) 96,87 %
17.11.2018 17:00 6,2 C 4,8 C 4,0 C 77 % 1027,8 hPa 0,0 l/m 0,00 h 0,00 h 0 W/m 6,9 km/h (2 Bft) 97,58 %
17.11.2018 18:00 5,1 C 3,9 C 3,1 C 78 % 1027,9 hPa 0,0 l/m 0,00 h 0,00 h 0 W/m 7,0 km/h (2 Bft) 97,83 %
17.11.2018 19:00 4,3 C 3,4 C 2,7 C 79 % 1028,2 hPa 0,0 l/m 0,00 h 0,00 h 0 W/m 7,8 km/h (2 Bft) 99,13 %
17.11.2018 20:00 3,8 C 2,8 C 2,1 C 79 % 1027,9 hPa 0,0 l/m 0,00 h 0,00 h 0 W/m 6,0 km/h (2 Bft) 94,74 %
17.11.2018 21:00 3,3 C 2,6 C 1,9 C 80 % 1028,3 hPa 0,0 l/m 0,00 h 0,00 h 0 W/m 7,4 km/h (2 Bft) 98,65 %
17.11.2018 22:00 2,8 C 2,0 C 1,7 C 81 % 1028,4 hPa 0,0 l/m 0,00 h 0,00 h 0 W/m 7,7 km/h (2 Bft) 98,15 %
17.11.2018 23:00 2,2 C 1,2 C 1,0 C 82 % 1028,4 hPa 0,0 l/m 0,00 h 0,00 h 0 W/m 6,5 km/h (2 Bft) 97,65 %
18.11.2018 00:00 1,5 C 0,4 C 0,5 C 83 % 1028,2 hPa 0,0 l/m 0,00 h 0,00 h 0 W/m 6,7 km/h (2 Bft) 95,99 %
18.11.2018 01:00 0,8 C -0,1 C 0,0 C 85 % 1028,2 hPa 0,0 l/m 0,00 h 0,00 h 0 W/m 5,9 km/h (2 Bft) 98,73 %
18.11.2018 02:00 0,3 C -0,6 C -0,3 C 86 % 1028,2 hPa 0,0 l/m 0,00 h 0,00 h 0 W/m 5,8 km/h (2 Bft) 96,86 %
18.11.2018 03:00 0,1 C -0,7 C -0,6 C 88 % 1028,2 hPa 0,0 l/m 0,00 h 0,00 h 0 W/m 4,2 km/h (1 Bft) 98,72 %
18.11.2018 04:00 -0,1 C -1,0 C -1,0 C 89 % 1028,0 hPa 0,0 l/m 0,00 h 0,00 h 0 W/m 2,5 km/h (1 Bft) 96,65 %
18.11.2018 05:00 -0,2 C -1,0 C -0,9 C 90 % 1027,6 hPa 0,0 l/m 0,00 h 0,00 h 0 W/m 6,4 km/h (2 Bft) 96,77 %
18.11.2018 06:00 -0,3 C -1,1 C -1,1 C 91 % 1027,4 hPa 0,0 l/m 0,00 h 0,00 h 0 W/m 7,5 km/h (2 Bft) 97,90 %
18.11.2018 07:00 -0,5 C -1,1 C -1,1 C 91 % 1027,8 hPa 0,0 l/m 0,00 h 0,00 h 3 W/m 7,1 km/h (2 Bft) 98,93 %
18.11.2018 08:00 -0,4 C -0,7 C -0,8 C 91 % 1027,8 hPa 0,0 l/m 0,00 h 0,00 h 15 W/m 8,4 km/h (2 Bft) 94,87 %
18.11.2018 09:00 0,4 C 3,2 C -0,1 C 90 % 1027,5 hPa 0,0 l/m 0,80 h 0,00 h 127 W/m 9,0 km/h (2 Bft) 97,94 %
18.11.2018 10:00 2,8 C 8,5 C 1,1 C 80 % 1027,2 hPa 0,0 l/m 0,97 h 0,00 h 239 W/m 9,4 km/h (2 Bft) 97,44 %
18.11.2018 11:00 5,7 C 13,0 C 2,7 C 70 % 1027,0 hPa 0,0 l/m 1,00 h 0,00 h 341 W/m 10,5 km/h (2 Bft) 98,65 %
18.11.2018 12:00 7,4 C 14,2 C 4,8 C 63 % 1026,6 hPa 0,0 l/m 1,00 h 0,00 h 371 W/m 12,1 km/h (2 Bft) 97,41 %
18.11.2018 13:00 8,5 C 14,9 C 5,2 C 59 % 1025,8 hPa 0,0 l/m 1,00 h 0,00 h 333 W/m 11,4 km/h (2 Bft) 98,04 %
18.11.2018 14:00 8,2 C 11,6 C 4,8 C 54 % 1025,0 hPa 0,0 l/m 0,90 h 0,00 h 237 W/m 13,8 km/h (3 Bft) 99,59 %
18.11.2018 15:00 6,7 C 6,1 C 4,2 C 55 % 1024,6 hPa 0,0 l/m 0,00 h 0,00 h 30 W/m 13,1 km/h (3 Bft) 95,37 %
18.11.2018 16:00 5,7 C 4,7 C 3,4 C 56 % 1024,7 hPa 0,0 l/m 0,00 h 0,00 h 12 W/m 11,3 km/h (2 Bft) 97,20 %
18.11.2018 17:00 4,3 C 3,3 C 2,3 C 61 % 1024,3 hPa 0,0 l/m 0,00 h 0,00 h 0 W/m 11,1 km/h (2 Bft) 97,90 %
18.11.2018 18:00 3,4 C 2,7 C 1,8 C 62 % 1024,2 hPa 0,0 l/m 0,00 h 0,00 h 0 W/m 11,9 km/h (2 Bft) 99,30 %
18.11.2018 19:00 2,5 C 1,5 C 1,0 C 63 % 1024,0 hPa 0,0 l/m 0,00 h 0,00 h 0 W/m 9,5 km/h (2 Bft) 94,38 %
18.11.2018 20:00 1,7 C 0,7 C 0,4 C 67 % 1023,7 hPa 0,0 l/m 0,00 h 0,00 h 0 W/m 7,5 km/h (2 Bft) 97,44 %
18.11.2018 21:00 1,2 C 0,6 C 0,0 C 75 % 1023,4 hPa 0,0 l/m 0,00 h 0,00 h 0 W/m 5,9 km/h (2 Bft) 98,01 %
18.11.2018 22:00 1,2 C 0,4 C -0,1 C 81 % 1023,6 hPa 0,0 l/m 0,00 h 0,00 h 0 W/m 6,7 km/h (2 Bft) 97,09 %
18.11.2018 23:00 1,1 C 0,7 C 0,0 C 84 % 1023,4 hPa 0,0 l/m 0,00 h 0,00 h 0 W/m 9,9 km/h (2 Bft) 97,29 %
Min-Datum _ 17.11.18 17.11.18 17.11.18 18.11.18 12.11.18 - - - - 12.11.18 12.11.18
_ Min-Zeit 08:32 05:52 06:14 14:16 09:50 - - - - 00:54 00:02
Minimum _ -0,6 C -1,7 C -1,7 C 53 % 1009,2 hPa - - - - 0,0 km/h (0 Bft) 10,53 %
Max-Datum _ 13.11.18 17.11.18 13.11.18 12.11.18 17.11.18 12.11.18 14.11.18 12.11.18 13.11.18 13.11.18 12.11.18
_ Max-Zeit 12:42 12:26 12:26 10:22 10:38 07:10 12:08 05:10 12:32 12:02 00:10
Maximum _ 13,6 C 18,9 C 12,8 C 99 % 1029,4 hPa 1,0 l/m 0,07 h 0,08 h 473 W/m 41,8 km/h
SO (6 Bft)
100,00 %
Durchschnitt _ 7,0 C 7,1 C 5,5 C 88 % 1023,3 hPa #5,0 l/m #32:02 h #6:52 h 148 W/m 10,0 km/h (2 Bft) 97,47 %
© 2018 W. Hausmann